Terminal Aerodrome Forecast
Issued by NWS

Home | Current Version | Previous Version | Graphics & Text | Print | Product List | Glossary On
Versions: 1 2 3 4 5 6 7 8 9 10 11 12 13 14 15
490
FTUS42 KMHX 201721
TAFPGV
TAF
KPGV 201721Z 2018/2118 01007KT P6SM SKC
     FM210700 20006KT P6SM BKN050
     FM211600 25008KT P6SM SCT040
      AMD LTD TO CLD VIS AND WIND=

USA.gov is the U.S. government's official web portal to all federal, state and local government web resources and services.